Time;durP1;ratioP1;P1;durP2;ratioP2;P2;SDS_P1;SDS_P2;PMS_P1;PMS_P2;Temp;Humidity;BMP_temperature;BMP_pressure;BME280_temperature;BME280_humidity;BME280_pressure;Samples;Min_cycle;Max_cycle;Signal;HPM_P1;HPM_P2
2022/12/31 00:00:18;;;;;;;;;;;;;;;13.65;nan;100654.69;5028718;28;19920;-35
2022/12/31 00:02:44;;;;;;;;;;;;;;;13.65;nan;100643.91;5028748;28;20007;-34
2022/12/31 00:05:10;;;;;;;;;;;;;;;13.60;nan;100626.66;5032329;28;19921;-35
2022/12/31 00:07:35;;;;;;;;;;;;;;;13.67;nan;100647.13;5028470;28;19928;-34
2022/12/31 00:10:01;;;;;;;;;;;;;;;13.84;nan;100648.47;5037001;28;20019;-34
2022/12/31 00:12:26;;;;;;;;;;;;;;;13.83;nan;100659.50;5044967;28;20649;-34
2022/12/31 00:14:52;;;;;;;;;;;;;;;13.83;nan;100651.44;5042613;28;20367;-34
2022/12/31 00:17:17;;;;;;;;;;;;;;;13.91;nan;100665.13;5039432;28;20357;-34
2022/12/31 00:19:42;;;;;;;;;;;;;;;13.95;nan;100661.88;5042142;28;19981;-34
2022/12/31 00:22:08;;;;;;;;;;;;;;;13.98;nan;100662.16;5045452;28;19925;-35
2022/12/31 00:24:34;;;;;;;;;;;;;;;14.00;nan;100661.88;5037434;28;19924;-34
2022/12/31 00:27:00;;;;;;;;;;;;;;;14.05;nan;100669.97;5042235;28;19925;-34
2022/12/31 00:29:25;;;;;;;;;;;;;;;14.06;nan;100661.59;5041096;28;20196;-34
2022/12/31 00:31:50;;;;;;;;;;;;;;;14.12;nan;100667.78;5046583;28;19917;-35
2022/12/31 00:34:16;;;;;;;;;;;;;;;14.11;nan;100663.47;5046528;28;20013;-34
2022/12/31 00:36:41;;;;;;;;;;;;;;;14.14;nan;100674.50;5047603;28;19924;-34
2022/12/31 00:39:07;;;;;;;;;;;;;;;14.15;nan;100676.13;5041651;28;20338;-35
2022/12/31 00:41:33;;;;;;;;;;;;;;;14.10;nan;100673.44;5045772;28;19928;-34
2022/12/31 00:43:58;;;;;;;;;;;;;;;14.11;nan;100664.28;5043492;28;20355;-35
2022/12/31 00:46:24;;;;;;;;;;;;;;;14.17;nan;100662.38;5038852;28;19921;-34
2022/12/31 00:48:49;;;;;;;;;;;;;;;14.15;nan;100657.25;5042366;28;19947;-34
2022/12/31 00:51:16;;;;;;;;;;;;;;;14.19;nan;100658.34;5043029;28;20008;-34
2022/12/31 00:53:41;;;;;;;;;;;;;;;14.21;nan;100664.25;5044064;28;19924;-34
2022/12/31 00:56:09;;;;;;;;;;;;;;;14.21;nan;100661.56;5044925;28;19924;-35
2022/12/31 00:58:35;;;;;;;;;;;;;;;14.31;nan;100673.38;5045066;28;19946;-35
2022/12/31 01:01:07;;;;;;;;;;;;;;;14.32;nan;100661.53;5050012;28;20271;-34
2022/12/31 01:03:32;;;;;;;;;;;;;;;14.34;nan;100670.94;5048933;28;19921;-34
2022/12/31 01:05:58;;;;;;;;;;;;;;;14.40;nan;100655.59;5048227;28;19927;-35
2022/12/31 01:08:23;;;;;;;;;;;;;;;14.38;nan;100657.75;5043383;28;20024;-35
2022/12/31 01:13:32;;;;;;;;;;;;;;;14.46;nan;100674.19;5042451;28;19957;-34
2022/12/31 01:16:05;;;;;;;;;;;;;;;14.51;nan;100678.72;5048135;28;19920;-36
2022/12/31 01:18:30;;;;;;;;;;;;;;;14.58;nan;100683.84;5043811;28;20263;-34
2022/12/31 01:20:59;;;;;;;;;;;;;;;14.68;nan;100684.59;5046250;28;19973;-34
2022/12/31 01:23:25;;;;;;;;;;;;;;;14.65;nan;100695.13;5044404;28;20362;-35
2022/12/31 01:25:50;;;;;;;;;;;;;;;14.65;nan;100705.91;5046739;28;20487;-35
2022/12/31 01:28:15;;;;;;;;;;;;;;;14.65;nan;100690.53;5042640;28;19924;-34
2022/12/31 01:30:41;;;;;;;;;;;;;;;14.67;nan;100703.75;5042414;28;20382;-34
2022/12/31 01:33:06;;;;;;;;;;;;;;;14.72;nan;100718.03;5043385;28;20703;-34
2022/12/31 01:35:33;;;;;;;;;;;;;;;14.72;nan;100709.94;5045245;28;20375;-35
2022/12/31 01:37:58;;;;;;;;;;;;;;;14.75;nan;100695.09;5039885;28;19932;-35
2022/12/31 01:40:23;;;;;;;;;;;;;;;14.74;nan;100694.28;5039741;28;19913;-35
2022/12/31 01:42:52;;;;;;;;;;;;;;;14.75;nan;100695.91;5044063;28;19963;-35
2022/12/31 01:45:18;;;;;;;;;;;;;;;14.77;nan;100709.13;5042819;28;20371;-34
2022/12/31 01:47:50;;;;;;;;;;;;;;;14.75;nan;100685.13;5044710;28;19925;-34
2022/12/31 01:50:19;;;;;;;;;;;;;;;14.76;nan;100688.63;5044862;28;20372;-34
2022/12/31 01:52:47;;;;;;;;;;;;;;;14.80;nan;100714.75;5041969;28;19920;-35
2022/12/31 01:55:32;;;;;;;;;;;;;;;14.84;nan;100714.19;5043118;28;20064;-35
2022/12/31 01:58:04;;;;;;;;;;;;;;;14.90;nan;100726.56;5039654;28;19924;-34
2022/12/31 02:00:30;;;;;;;;;;;;;;;14.84;nan;100727.69;5041019;28;19963;-34
2022/12/31 02:02:55;;;;;;;;;;;;;;;14.84;nan;100715.00;5044895;28;19920;-34
2022/12/31 02:05:47;;;;;;;;;;;;;;;14.89;nan;100717.66;5037863;28;19927;-35
2022/12/31 02:08:13;;;;;;;;;;;;;;;14.91;nan;100739.00;5024469;28;19925;-34
2022/12/31 02:10:38;;;;;;;;;;;;;;;15.00;nan;100734.63;5040949;28;20016;-34
2022/12/31 02:13:03;;;;;;;;;;;;;;;14.98;nan;100718.72;5043897;28;20054;-35
2022/12/31 02:15:46;;;;;;;;;;;;;;;14.99;nan;100714.13;5043076;28;19959;-35
2022/12/31 02:18:12;;;;;;;;;;;;;;;15.00;nan;100718.44;5041640;28;20387;-35
2022/12/31 02:20:56;;;;;;;;;;;;;;;14.97;nan;100725.19;5047922;28;19924;-34
2022/12/31 02:23:26;;;;;;;;;;;;;;;15.04;nan;100741.06;5044740;28;20027;-34
2022/12/31 02:26:03;;;;;;;;;;;;;;;15.06;nan;100744.28;5045344;28;20279;-34
2022/12/31 02:28:41;;;;;;;;;;;;;;;15.10;nan;100742.69;5039965;28;19924;-34
2022/12/31 02:31:18;;;;;;;;;;;;;;;15.13;nan;100744.00;5044280;28;19983;-35
2022/12/31 02:33:48;;;;;;;;;;;;;;;15.10;nan;100735.38;5044431;28;20019;-35
2022/12/31 02:36:19;;;;;;;;;;;;;;;15.12;nan;100737.81;5040464;28;20400;-34
2022/12/31 02:38:46;;;;;;;;;;;;;;;15.12;nan;100727.00;5041997;28;19920;-34
2022/12/31 02:41:48;;;;;;;;;;;;;;;15.12;nan;100737.81;5041524;28;19921;-35
2022/12/31 02:43:58;;;;;;;;;;;;;;;15.14;nan;100727.53;5041511;28;19916;-35
2022/12/31 02:46:29;;;;;;;;;;;;;;;15.18;nan;100722.38;5041945;28;20309;-35
2022/12/31 02:49:03;;;;;;;;;;;;;;;15.20;nan;100721.00;5039914;28;19935;-34
2022/12/31 02:51:46;;;;;;;;;;;;;;;15.21;nan;100719.94;5041666;28;20019;-34
2022/12/31 02:54:12;;;;;;;;;;;;;;;15.25;nan;100729.06;5041256;28;19921;-35
2022/12/31 02:56:56;;;;;;;;;;;;;;;15.26;nan;100728.00;5039090;28;20271;-35
2022/12/31 03:02:18;;;;;;;;;;;;;;;15.33;nan;100720.41;5044007;28;19963;-35
2022/12/31 03:04:54;;;;;;;;;;;;;;;15.32;nan;100710.69;5040331;28;20449;-34
2022/12/31 03:07:21;;;;;;;;;;;;;;;15.33;nan;100727.69;5036071;28;20329;-34
2022/12/31 03:09:47;;;;;;;;;;;;;;;15.32;nan;100716.09;5040875;28;19925;-35
2022/12/31 03:14:57;;;;;;;;;;;;;;;15.34;nan;100713.91;5040980;28;20407;-34
2022/12/31 03:17:23;;;;;;;;;;;;;;;15.39;nan;100727.38;5041187;28;19921;-36
2022/12/31 03:22:35;;;;;;;;;;;;;;;15.45;nan;100724.66;5047036;28;19927;-35
2022/12/31 03:27:44;;;;;;;;;;;;;;;15.55;nan;100735.38;5040421;28;19955;-35
2022/12/31 03:30:11;;;;;;;;;;;;;;;15.53;nan;100724.03;5040053;28;20402;-34
2022/12/31 03:32:36;;;;;;;;;;;;;;;15.53;nan;100727.53;5044280;28;20287;-34
2022/12/31 03:35:02;;;;;;;;;;;;;;;15.58;nan;100714.00;5037767;28;19928;-34
2022/12/31 03:37:27;;;;;;;;;;;;;;;15.67;nan;100722.34;5042443;28;20400;-34
2022/12/31 03:39:52;;;;;;;;;;;;;;;15.64;nan;100718.31;5042013;28;20423;-34
2022/12/31 03:42:18;;;;;;;;;;;;;;;15.71;nan;100723.38;5043116;28;20330;-34
2022/12/31 03:44:43;;;;;;;;;;;;;;;15.68;nan;100716.66;5042910;28;19951;-34
2022/12/31 03:47:09;;;;;;;;;;;;;;;15.76;nan;100725.25;5035752;28;20012;-34
2022/12/31 03:49:34;;;;;;;;;;;;;;;15.73;nan;100717.72;5044053;28;19924;-35
2022/12/31 03:52:01;;;;;;;;;;;;;;;15.71;nan;100710.69;5041852;28;20000;-34
2022/12/31 03:54:27;;;;;;;;;;;;;;;15.73;nan;100709.59;5040759;28;20023;-35
2022/12/31 03:56:52;;;;;;;;;;;;;;;15.77;nan;100703.34;5038253;28;20167;-34
2022/12/31 03:59:18;;;;;;;;;;;;;;;15.83;nan;100717.63;5038404;28;19917;-34
2022/12/31 04:01:43;;;;;;;;;;;;;;;15.89;nan;100720.00;5042806;28;20325;-35
2022/12/31 04:04:08;;;;;;;;;;;;;;;15.89;nan;100717.28;5037521;28;19944;-36
2022/12/31 04:06:34;;;;;;;;;;;;;;;15.92;nan;100714.03;5038915;28;19921;-35
2022/12/31 04:08:59;;;;;;;;;;;;;;;15.94;nan;100717.25;5044671;28;19920;-34
2022/12/31 04:11:24;;;;;;;;;;;;;;;15.97;nan;100722.06;5049446;28;19917;-35
2022/12/31 04:13:50;;;;;;;;;;;;;;;15.99;nan;100719.09;5044157;28;20436;-34
2022/12/31 04:16:15;;;;;;;;;;;;;;;16.04;nan;100715.53;5042984;28;20240;-34
2022/12/31 04:18:40;;;;;;;;;;;;;;;16.02;nan;100708.53;5045057;28;20388;-35
2022/12/31 04:21:06;;;;;;;;;;;;;;;16.07;nan;100709.56;5043244;28;20594;-34
2022/12/31 04:23:31;;;;;;;;;;;;;;;16.10;nan;100719.81;5040960;28;20449;-34
2022/12/31 04:25:56;;;;;;;;;;;;;;;16.09;nan;100724.41;5045847;28;19924;-34
2022/12/31 04:28:22;;;;;;;;;;;;;;;16.12;nan;100710.31;5042984;28;19927;-35
2022/12/31 04:30:47;;;;;;;;;;;;;;;16.15;nan;100720.53;5048547;28;20154;-35
2022/12/31 04:33:12;;;;;;;;;;;;;;;16.18;nan;100714.59;5044454;28;19917;-35
2022/12/31 04:35:38;;;;;;;;;;;;;;;16.21;nan;100724.03;5044387;28;20492;-35
2022/12/31 04:38:03;;;;;;;;;;;;;;;16.22;nan;100725.63;5044754;28;20028;-35
2022/12/31 04:40:28;;;;;;;;;;;;;;;16.26;nan;100723.97;5046253;28;20476;-35
2022/12/31 04:42:54;;;;;;;;;;;;;;;16.29;nan;100718.78;5044605;28;19984;-35
2022/12/31 04:45:19;;;;;;;;;;;;;;;16.29;nan;100723.38;5047838;28;20386;-34
2022/12/31 04:47:45;;;;;;;;;;;;;;;16.31;nan;100726.59;5043488;28;19920;-35
2022/12/31 04:50:10;;;;;;;;;;;;;;;16.32;nan;100722.81;5045615;28;19920;-34
2022/12/31 04:52:35;;;;;;;;;;;;;;;16.36;nan;100726.56;5046628;28;19924;-35
2022/12/31 04:55:01;;;;;;;;;;;;;;;16.36;nan;100723.88;5044011;28;21138;-35
2022/12/31 04:57:26;;;;;;;;;;;;;;;16.40;nan;100722.19;5043715;28;20376;-35
2022/12/31 04:59:51;;;;;;;;;;;;;;;16.41;nan;100715.69;5043365;28;20402;-34
2022/12/31 05:02:17;;;;;;;;;;;;;;;16.41;nan;100717.59;5044427;28;20504;-35
2022/12/31 05:04:42;;;;;;;;;;;;;;;16.41;nan;100721.09;5046203;28;20327;-36
2022/12/31 05:07:07;;;;;;;;;;;;;;;16.38;nan;100718.19;5047126;28;19925;-36
2022/12/31 05:09:33;;;;;;;;;;;;;;;16.34;nan;100717.94;5046149;28;19974;-35
2022/12/31 05:11:58;;;;;;;;;;;;;;;16.35;nan;100710.66;5045365;28;19956;-35
2022/12/31 05:14:24;;;;;;;;;;;;;;;16.32;nan;100710.09;5042191;28;20322;-35
2022/12/31 05:16:49;;;;;;;;;;;;;;;16.31;nan;100713.91;5041599;28;19974;-34
2022/12/31 05:19:14;;;;;;;;;;;;;;;16.35;nan;100719.56;5043182;28;19917;-35
2022/12/31 05:21:40;;;;;;;;;;;;;;;16.36;nan;100714.97;5044639;28;19916;-34
2022/12/31 05:24:05;;;;;;;;;;;;;;;16.35;nan;100716.06;5043600;28;19920;-35
2022/12/31 05:26:31;;;;;;;;;;;;;;;16.32;nan;100712.00;5043510;28;19927;-34
2022/12/31 05:28:59;;;;;;;;;;;;;;;16.22;nan;100695.91;5043498;28;20011;-34
2022/12/31 05:31:24;;;;;;;;;;;;;;;16.15;nan;100696.22;5040320;28;20378;-35
2022/12/31 05:33:50;;;;;;;;;;;;;;;16.13;nan;100703.81;5042588;28;19924;-34
2022/12/31 05:36:15;;;;;;;;;;;;;;;16.13;nan;100708.41;5044625;28;20354;-35
2022/12/31 05:38:40;;;;;;;;;;;;;;;16.07;nan;100710.38;5042993;28;19917;-34
2022/12/31 05:41:06;;;;;;;;;;;;;;;16.05;nan;100698.25;5045478;28;19925;-35
2022/12/31 05:43:32;;;;;;;;;;;;;;;16.03;nan;100687.72;5044582;28;19943;-35
2022/12/31 05:46:01;;;;;;;;;;;;;;;16.05;nan;100679.31;5040641;28;20177;-34
2022/12/31 05:48:27;;;;;;;;;;;;;;;16.04;nan;100683.13;5040680;28;19917;-34
2022/12/31 05:50:52;;;;;;;;;;;;;;;16.12;nan;100691.41;5044500;28;20023;-34
2022/12/31 05:53:18;;;;;;;;;;;;;;;16.15;nan;100696.22;5045609;28;19960;-35
2022/12/31 05:55:44;;;;;;;;;;;;;;;16.14;nan;100694.59;5045395;28;20035;-35
2022/12/31 05:58:10;;;;;;;;;;;;;;;16.15;nan;100701.63;5041625;28;19917;-34
2022/12/31 06:00:35;;;;;;;;;;;;;;;16.18;nan;100701.09;5043050;28;19923;-34
2022/12/31 06:03:00;;;;;;;;;;;;;;;16.22;nan;100698.59;5040706;28;19920;-35
2022/12/31 06:05:25;;;;;;;;;;;;;;;16.27;nan;100707.47;5044847;28;19963;-35
2022/12/31 06:07:51;;;;;;;;;;;;;;;16.32;nan;100714.69;5044967;28;20822;-35
2022/12/31 06:10:16;;;;;;;;;;;;;;;16.37;nan;100711.16;5046101;28;19979;-35
2022/12/31 06:12:42;;;;;;;;;;;;;;;16.37;nan;100716.56;5043783;28;19966;-35
2022/12/31 06:15:07;;;;;;;;;;;;;;;16.40;nan;100722.19;5046295;28;19921;-34
2022/12/31 06:17:33;;;;;;;;;;;;;;;16.43;nan;100721.63;5046278;28;19920;-35
2022/12/31 06:19:58;;;;;;;;;;;;;;;16.42;nan;100716.50;5047396;28;19916;-35
2022/12/31 06:22:24;;;;;;;;;;;;;;;16.44;nan;100712.41;5047509;28;19999;-35
2022/12/31 06:24:49;;;;;;;;;;;;;;;16.45;nan;100711.31;5043807;28;20002;-35
2022/12/31 06:27:14;;;;;;;;;;;;;;;16.42;nan;100705.69;5045289;28;19947;-34
2022/12/31 06:29:40;;;;;;;;;;;;;;;16.40;nan;100697.88;5044589;28;19943;-35
2022/12/31 06:32:05;;;;;;;;;;;;;;;16.42;nan;100700.28;5047529;28;19924;-34
2022/12/31 06:34:30;;;;;;;;;;;;;;;16.44;nan;100698.09;5043632;28;19921;-35
2022/12/31 06:36:56;;;;;;;;;;;;;;;16.43;nan;100696.47;5045823;28;20039;-35
2022/12/31 06:39:21;;;;;;;;;;;;;;;16.46;nan;100691.28;5046176;28;20488;-34
2022/12/31 06:41:47;;;;;;;;;;;;;;;16.47;nan;100686.69;5045304;28;19987;-34
2022/12/31 06:44:13;;;;;;;;;;;;;;;16.48;nan;100694.50;5043919;28;19924;-35
2022/12/31 06:46:39;;;;;;;;;;;;;;;16.49;nan;100679.88;5042223;28;19917;-35
2022/12/31 06:49:04;;;;;;;;;;;;;;;16.53;nan;100690.97;5040350;28;19932;-35
2022/12/31 06:51:29;;;;;;;;;;;;;;;16.54;nan;100696.09;5044779;28;20094;-35
2022/12/31 06:53:55;;;;;;;;;;;;;;;16.55;nan;100684.16;5042699;28;19978;-34
2022/12/31 06:56:24;;;;;;;;;;;;;;;16.56;nan;100674.16;5041264;28;19916;-35
2022/12/31 06:58:50;;;;;;;;;;;;;;;16.57;nan;100676.56;5043802;28;19986;-35
2022/12/31 07:01:33;;;;;;;;;;;;;;;16.61;nan;100683.00;5043350;28;19916;-35
2022/12/31 07:04:20;;;;;;;;;;;;;;;16.66;nan;100697.56;5045181;28;19924;-35
2022/12/31 07:06:51;;;;;;;;;;;;;;;16.65;nan;100693.22;5046232;28;19943;-36
2022/12/31 07:09:19;;;;;;;;;;;;;;;16.63;nan;100697.03;5041008;28;20333;-35
2022/12/31 07:12:08;;;;;;;;;;;;;;;16.61;nan;100704.63;5044543;28;20047;-36
2022/12/31 07:14:37;;;;;;;;;;;;;;;16.63;nan;100709.75;5041813;28;19924;-35
2022/12/31 07:17:02;;;;;;;;;;;;;;;16.64;nan;100708.66;5039973;28;20529;-35
2022/12/31 07:19:31;;;;;;;;;;;;;;;16.67;nan;100704.59;5043237;28;19969;-35
2022/12/31 07:21:57;;;;;;;;;;;;;;;16.66;nan;100689.44;5043775;28;20405;-35
2022/12/31 07:24:23;;;;;;;;;;;;;;;16.71;nan;100684.81;5042943;28;20363;-35
2022/12/31 07:26:51;;;;;;;;;;;;;;;16.68;nan;100684.56;5040230;28;20256;-35
2022/12/31 07:29:24;;;;;;;;;;;;;;;16.70;nan;100677.00;5046716;28;19925;-35
2022/12/31 07:32:01;;;;;;;;;;;;;;;16.72;nan;100672.09;5043410;28;19916;-36
2022/12/31 07:34:27;;;;;;;;;;;;;;;16.74;nan;100678.00;5043767;28;20488;-36
2022/12/31 07:36:55;;;;;;;;;;;;;;;16.79;nan;100677.94;5042487;28;19932;-36
2022/12/31 07:39:27;;;;;;;;;;;;;;;16.82;nan;100672.75;5041798;28;19916;-35
2022/12/31 07:42:19;;;;;;;;;;;;;;;16.85;nan;100668.66;5043940;28;19917;-36
2022/12/31 07:44:47;;;;;;;;;;;;;;;16.89;nan;100667.00;5016976;28;19936;-36
2022/12/31 07:47:18;;;;;;;;;;;;;;;16.93;nan;100668.00;5043144;28;19921;-34
2022/12/31 07:49:43;;;;;;;;;;;;;;;16.99;nan;100666.03;5043238;28;19964;-34
2022/12/31 07:52:09;;;;;;;;;;;;;;;17.01;nan;100664.63;5045125;28;20445;-34
2022/12/31 07:54:34;;;;;;;;;;;;;;;16.99;nan;100664.13;5041004;28;20345;-34
2022/12/31 07:56:59;;;;;;;;;;;;;;;17.03;nan;100657.03;5043823;28;20015;-34
2022/12/31 07:59:44;;;;;;;;;;;;;;;17.07;nan;100665.38;5044927;28;20279;-34
2022/12/31 08:02:27;;;;;;;;;;;;;;;17.07;nan;100657.25;5041792;28;20402;-33
2022/12/31 08:05:03;;;;;;;;;;;;;;;17.10;nan;100662.88;5041530;28;19928;-34
2022/12/31 08:07:44;;;;;;;;;;;;;;;17.08;nan;100662.38;5038320;28;20063;-33
2022/12/31 08:10:13;;;;;;;;;;;;;;;17.13;nan;100666.91;5040210;28;19920;-33
2022/12/31 08:12:39;;;;;;;;;;;;;;;17.16;nan;100664.41;5044541;28;19923;-33
2022/12/31 08:15:12;;;;;;;;;;;;;;;17.19;nan;100666.53;5047315;28;20301;-33
2022/12/31 08:17:37;;;;;;;;;;;;;;;17.22;nan;100675.97;5044088;28;19967;-33
2022/12/31 08:20:04;;;;;;;;;;;;;;;17.26;nan;100668.06;5040873;28;20163;-33
2022/12/31 08:22:38;;;;;;;;;;;;;;;17.30;nan;100677.22;5046891;28;20235;-33
2022/12/31 08:25:07;;;;;;;;;;;;;;;17.31;nan;100686.94;5043340;28;20263;-33
2022/12/31 08:27:35;;;;;;;;;;;;;;;17.34;nan;100686.34;5041360;28;19924;-33
2022/12/31 08:30:08;;;;;;;;;;;;;;;17.39;nan;100688.97;5041276;28;19928;-33
2022/12/31 08:32:38;;;;;;;;;;;;;;;17.40;nan;100693.28;5041358;28;19917;-33
2022/12/31 08:35:22;;;;;;;;;;;;;;;17.40;nan;100685.16;5040185;28;20169;-33
2022/12/31 08:37:56;;;;;;;;;;;;;;;17.41;nan;100684.88;5046455;28;19921;-33
2022/12/31 08:40:33;;;;;;;;;;;;;;;17.44;nan;100681.59;5040557;28;19917;-34
2022/12/31 08:43:05;;;;;;;;;;;;;;;17.50;nan;100676.88;5040980;28;20366;-33
2022/12/31 08:45:36;;;;;;;;;;;;;;;17.53;nan;100670.88;5044335;28;19921;-33
2022/12/31 08:48:01;;;;;;;;;;;;;;;17.58;nan;100672.69;5039251;28;19935;-33
2022/12/31 08:50:29;;;;;;;;;;;;;;;17.61;nan;100680.25;5038748;28;20206;-34
2022/12/31 08:52:55;;;;;;;;;;;;;;;17.63;nan;100676.13;5044253;28;20008;-34
2022/12/31 08:55:20;;;;;;;;;;;;;;;17.69;nan;100682.28;5039998;28;20314;-34
2022/12/31 08:57:48;;;;;;;;;;;;;;;17.73;nan;100681.41;5037808;28;19924;-34
2022/12/31 09:00:15;;;;;;;;;;;;;;;17.76;nan;100677.28;5042597;28;19923;-34
2022/12/31 09:03:00;;;;;;;;;;;;;;;17.81;nan;100671.81;5044915;28;20292;-34
2022/12/31 09:05:31;;;;;;;;;;;;;;;17.86;nan;100684.44;5045979;28;19920;-34
2022/12/31 09:08:23;;;;;;;;;;;;;;;17.90;nan;100685.44;5039927;28;19920;-34
2022/12/31 09:10:56;;;;;;;;;;;;;;;17.93;nan;100671.31;5043299;28;19925;-33
2022/12/31 09:13:48;;;;;;;;;;;;;;;17.91;nan;100674.31;5041117;28;19931;-34
2022/12/31 09:16:36;;;;;;;;;;;;;;;17.91;nan;100690.56;5028352;28;20067;-34
2022/12/31 09:19:02;;;;;;;;;;;;;;;17.96;nan;100695.13;5032700;28;20416;-36
2022/12/31 09:21:27;;;;;;;;;;;;;;;17.99;nan;100698.03;5036946;28;19924;-35
2022/12/31 09:23:53;;;;;;;;;;;;;;;18.03;nan;100701.75;5046125;28;19960;-35
2022/12/31 09:26:21;;;;;;;;;;;;;;;18.06;nan;100694.94;5046088;28;20012;-35
2022/12/31 09:28:59;;;;;;;;;;;;;;;18.10;nan;100701.34;5041276;28;20000;-35
2022/12/31 09:31:35;;;;;;;;;;;;;;;18.14;nan;100699.66;5038382;28;20436;-36
2022/12/31 09:34:01;;;;;;;;;;;;;;;18.19;nan;100717.75;5042205;28;19920;-36
2022/12/31 09:36:47;;;;;;;;;;;;;;;18.23;nan;100716.03;5040221;28;21781;-35
2022/12/31 09:39:19;;;;;;;;;;;;;;;18.25;nan;100709.22;5043503;28;19962;-35
2022/12/31 09:41:53;;;;;;;;;;;;;;;18.27;nan;100715.13;5037126;28;19935;-36
2022/12/31 09:44:34;;;;;;;;;;;;;;;18.30;nan;100711.00;5041910;28;20668;-34
2022/12/31 09:47:18;;;;;;;;;;;;;;;18.32;nan;100696.06;5041942;28;19927;-35
2022/12/31 09:49:43;;;;;;;;;;;;;;;18.32;nan;100706.13;5043068;28;20323;-35
2022/12/31 09:52:24;;;;;;;;;;;;;;;18.34;nan;100704.72;5036173;28;19921;-35
2022/12/31 09:54:59;;;;;;;;;;;;;;;18.36;nan;100699.78;5042173;28;19931;-35
2022/12/31 09:57:28;;;;;;;;;;;;;;;18.40;nan;100694.56;5041742;28;19920;-35
2022/12/31 09:59:59;;;;;;;;;;;;;;;18.40;nan;100692.66;5039822;28;19943;-35
2022/12/31 10:02:36;;;;;;;;;;;;;;;18.42;nan;100692.34;5041168;28;20210;-35
2022/12/31 10:05:01;;;;;;;;;;;;;;;18.43;nan;100694.75;5046864;28;20275;-35
2022/12/31 10:07:33;;;;;;;;;;;;;;;18.46;nan;100687.09;5037911;28;19924;-35
2022/12/31 10:10:34;;;;;;;;;;;;;;;18.48;nan;100684.91;5045702;28;19947;-36
2022/12/31 10:13:08;;;;;;;;;;;;;;;18.47;nan;100683.28;5000515;28;19963;-34
2022/12/31 10:15:52;;;;;;;;;;;;;;;18.45;nan;100689.03;5035369;28;19921;-36
2022/12/31 10:18:30;;;;;;;;;;;;;;;18.43;nan;100686.63;5041860;28;19932;-36
2022/12/31 10:21:18;;;;;;;;;;;;;;;18.40;nan;100687.22;5037557;28;19917;-36
2022/12/31 10:23:55;;;;;;;;;;;;;;;18.40;nan;100689.94;5039958;28;19987;-35
2022/12/31 10:26:39;;;;;;;;;;;;;;;18.40;nan;100684.50;5042150;28;19917;-35
2022/12/31 10:29:11;;;;;;;;;;;;;;;18.43;nan;100694.75;5038876;28;20302;-36
2022/12/31 10:31:37;;;;;;;;;;;;;;;18.45;nan;100686.31;5035602;28;20610;-36
2022/12/31 10:34:11;;;;;;;;;;;;;;;18.47;nan;100686.00;5038879;28;19921;-35
2022/12/31 10:36:52;;;;;;;;;;;;;;;18.48;nan;100685.69;5037028;28;20004;-35
2022/12/31 10:39:21;;;;;;;;;;;;;;;18.50;nan;100680.00;5043643;28;19921;-35
2022/12/31 10:41:49;;;;;;;;;;;;;;;18.48;nan;100684.91;5042201;28;19943;-35
2022/12/31 10:44:21;;;;;;;;;;;;;;;18.51;nan;100687.03;5044954;28;19966;-36
2022/12/31 10:46:46;;;;;;;;;;;;;;;18.49;nan;100691.94;5041140;28;19931;-35
2022/12/31 10:49:17;;;;;;;;;;;;;;;18.48;nan;100684.91;5038188;28;19920;-36
2022/12/31 10:51:52;;;;;;;;;;;;;;;18.46;nan;100671.63;5041513;28;19931;-36
2022/12/31 10:54:24;;;;;;;;;;;;;;;18.46;nan;100682.50;5045888;28;19989;-36
2022/12/31 10:57:06;;;;;;;;;;;;;;;18.48;nan;100679.47;5042915;28;19921;-36
2022/12/31 10:59:49;;;;;;;;;;;;;;;18.46;nan;100685.19;5045090;28;20015;-35
2022/12/31 11:02:40;;;;;;;;;;;;;;;18.45;nan;100675.47;5040221;28;19927;-35
2022/12/31 11:05:06;;;;;;;;;;;;;;;18.48;nan;100682.97;5041570;28;19920;-35
2022/12/31 11:07:45;;;;;;;;;;;;;;;18.52;nan;100696.78;5040485;28;19926;-35
2022/12/31 11:10:26;;;;;;;;;;;;;;;18.55;nan;100688.03;5040220;28;20083;-35
2022/12/31 11:13:14;;;;;;;;;;;;;;;18.57;nan;100693.94;5041705;28;19927;-35
2022/12/31 11:15:46;;;;;;;;;;;;;;;18.60;nan;100699.56;5038247;28;20393;-36
2022/12/31 11:18:19;;;;;;;;;;;;;;;18.62;nan;100696.56;5034433;28;20021;-36
2022/12/31 11:20:50;;;;;;;;;;;;;;;18.60;nan;100698.75;5041967;28;19927;-36
2022/12/31 11:23:16;;;;;;;;;;;;;;;18.60;nan;100687.91;5041011;28;20298;-35
2022/12/31 11:25:50;;;;;;;;;;;;;;;18.62;nan;100681.06;5042217;28;19924;-35
2022/12/31 11:28:22;;;;;;;;;;;;;;;18.65;nan;100685.91;5042940;28;19920;-35
2022/12/31 11:31:01;;;;;;;;;;;;;;;18.73;nan;100680.91;5041078;28;19944;-35
2022/12/31 11:33:29;;;;;;;;;;;;;;;18.80;nan;100679.38;5047247;28;19930;-35
2022/12/31 11:36:10;;;;;;;;;;;;;;;18.88;nan;100680.56;5045182;28;20061;-35
2022/12/31 11:38:52;;;;;;;;;;;;;;;18.98;nan;100677.63;5041578;28;20353;-36
2022/12/31 11:41:20;;;;;;;;;;;;;;;19.05;nan;100663.66;5039361;28;20459;-35
2022/12/31 11:43:46;;;;;;;;;;;;;;;19.12;nan;100667.53;5042099;28;19935;-36
2022/12/31 11:46:17;;;;;;;;;;;;;;;19.19;nan;100673.31;5042000;28;20245;-37
2022/12/31 11:48:43;;;;;;;;;;;;;;;19.23;nan;100673.53;5044762;28;20658;-35
2022/12/31 11:51:08;;;;;;;;;;;;;;;19.30;nan;100673.91;5044347;28;19921;-35
2022/12/31 11:53:49;;;;;;;;;;;;;;;19.32;nan;100666.25;5040462;28;19917;-36
2022/12/31 11:56:17;;;;;;;;;;;;;;;19.28;nan;100668.78;5045799;28;20179;-35
2022/12/31 11:58:52;;;;;;;;;;;;;;;19.36;nan;100664.50;5038257;28;19920;-36
2022/12/31 12:01:53;;;;;;;;;;;;;;;19.39;nan;100673.94;5042257;28;19920;-35
2022/12/31 12:04:19;;;;;;;;;;;;;;;19.39;nan;100682.94;4994957;28;20196;-36
2022/12/31 12:06:44;;;;;;;;;;;;;;;19.36;nan;100672.66;5028625;28;19924;-37
2022/12/31 12:09:15;;;;;;;;;;;;;;;19.37;nan;100674.25;5035152;28;20139;-35
2022/12/31 12:11:41;;;;;;;;;;;;;;;19.37;nan;100668.81;5041368;28;19927;-36
2022/12/31 12:14:29;;;;;;;;;;;;;;;19.33;nan;100665.94;5036637;28;19929;-35
2022/12/31 12:16:56;;;;;;;;;;;;;;;19.35;nan;100660.19;5040851;28;19921;-35
2022/12/31 12:19:24;;;;;;;;;;;;;;;19.35;nan;100671.06;5041174;28;20007;-35
2022/12/31 12:21:50;;;;;;;;;;;;;;;19.37;nan;100665.31;5038699;28;19999;-35
2022/12/31 12:24:19;;;;;;;;;;;;;;;19.39;nan;100674.78;5037633;28;20378;-35
2022/12/31 12:26:44;;;;;;;;;;;;;;;19.46;nan;100674.34;5042448;28;20004;-36
2022/12/31 12:29:10;;;;;;;;;;;;;;;19.44;nan;100680.09;5042477;28;20015;-35
2022/12/31 12:31:36;;;;;;;;;;;;;;;19.47;nan;100679.47;5046254;28;19959;-37
2022/12/31 12:34:02;;;;;;;;;;;;;;;19.50;nan;100676.13;5044436;28;19924;-36
2022/12/31 12:36:28;;;;;;;;;;;;;;;19.48;nan;100691.13;5045857;28;19920;-35
2022/12/31 12:39:01;;;;;;;;;;;;;;;19.43;nan;100681.19;5042175;28;19925;-36
2022/12/31 12:41:26;;;;;;;;;;;;;;;19.43;nan;100673.06;5044517;28;20457;-36
2022/12/31 12:44:05;;;;;;;;;;;;;;;19.43;nan;100667.63;5038326;28;20016;-36
2022/12/31 12:46:32;;;;;;;;;;;;;;;19.43;nan;100672.25;5039530;28;20294;-36
2022/12/31 12:48:58;;;;;;;;;;;;;;;19.41;nan;100658.97;5042630;28;19932;-36
2022/12/31 12:51:29;;;;;;;;;;;;;;;19.46;nan;100647.97;5047223;28;19924;-36
2022/12/31 12:54:04;;;;;;;;;;;;;;;19.49;nan;100641.91;5042858;28;19920;-35
2022/12/31 12:56:36;;;;;;;;;;;;;;;19.50;nan;100643.50;5044762;28;19921;-35
2022/12/31 12:59:18;;;;;;;;;;;;;;;19.52;nan;100646.72;5039378;28;19931;-36
2022/12/31 13:01:49;;;;;;;;;;;;;;;19.54;nan;100657.31;5038995;28;19932;-36
2022/12/31 13:04:15;;;;;;;;;;;;;;;19.52;nan;100671.19;5044063;28;19917;-36
2022/12/31 13:06:59;;;;;;;;;;;;;;;19.58;nan;100685.50;5045791;28;19927;-36
2022/12/31 13:09:27;;;;;;;;;;;;;;;19.65;nan;100693.19;5041009;28;19929;-35
2022/12/31 13:12:13;;;;;;;;;;;;;;;19.72;nan;100674.53;5041614;28;19948;-37
2022/12/31 13:15:01;;;;;;;;;;;;;;;19.79;nan;100669.47;5039728;28;20127;-36
2022/12/31 13:17:45;;;;;;;;;;;;;;;19.84;nan;100669.31;5046255;28;20404;-36
2022/12/31 13:20:23;;;;;;;;;;;;;;;19.92;nan;100676.72;5042431;28;19963;-36
2022/12/31 13:22:57;;;;;;;;;;;;;;;19.98;nan;100685.56;5040010;28;20307;-36
2022/12/31 13:25:45;;;;;;;;;;;;;;;20.04;nan;100676.94;5041176;28;20302;-36